Details From SMJP - Paramaribo Johan A Pengel Intl
To SYCJ - CHEDDI JAGAN INTL
Flight Number -
Tags generated
Created
Modified
Stats Distance 194 nm / 359 km
Max Altitude 0 ft / 0 m
Waypoints 2
Social Downloads 0
Likes 0
Share VATSIM

Download

Looking for another format? Having issues loading an existing format? Contact us
Advertisement - Login to hide

Notes

Basic altitude profile: - Ascent Rate: 500ft/min - Ascent Speed: 90kts - Cruise Altitude: 35000ft - Cruise Speed: 95kts - Descent Rate: 500ft/min - Descent Speed: 100kts Options: - Use NATs: yes - Use PACOTS: yes - Use low airways: no - Use high airways: no

Route

SMJP SYCJ

ID Type Via Altitude Latitude Longitude Leg Dist Tot Dist Heading (true) Name
O SMJP APT - 0 ft / 0 m 5.45283˚ -55.18778˚ - 0 nm - Paramaribo Johan A Pengel Intl
O SYCJ APT - 0 ft / 0 m 6.49887˚ -58.25455˚ 193 nm 193 nm 289° / 289° CHEDDI JAGAN INTL

Altitude Profile

Advertisement - Login to hide

Weather


0- 5 10 15 20 25 30 35+ Temperature / ° C

Clouds and Precipitation
Forecast for 2018-05-21 18:00 UTC. Updated 2 hours ago

Ground ~20,000 ft ~40,000 ft Winds

SMJP

Details ICAO SMJP (PBM)
Name Paramaribo Johan A Pengel Intl
Region Suriname
Timezone America/Paramaribo (UTC-3.0)
Stats Elevation 59 ft / 18 m (AMSL)
Location 5.452831° -55.187783°
Runways 1
Magnetic Variation 17.564° W

METAR

SMJP 211800Z 10009KT 9999 SCT035 32/22 Q1010 NOSIG

Decode

TAF

Not found

Departure Runways

ID Width Length Bearing (true) Bearing (mag) Surface Threshold Offset Overrun Length
11 148 ft / 45 m 11,415 ft / 3,479 m 89.66° 107.22° Concrete 0 ft / 0 m 164 ft / 50 m
29 148 ft / 45 m 11,415 ft / 3,479 m 269.67° 287.23° Concrete 0 ft / 0 m 197 ft / 60 m

SYCJ

Details ICAO SYCJ (GEO)
Name CHEDDI JAGAN INTL
Region Guyana
Timezone America/Guyana (UTC-4.0)
Stats Elevation 95 ft / 29 m (AMSL)
Location 6.498874° -58.254550°
Runways 2
Magnetic Variation 16.414° W

METAR

SYCJ 211800Z 08010KT 9999 FEW016CB SCT017 28/25 Q1010 CB-SW NOSIG

Decode

TAF

Not found

Destination Runways

ID Width Length Bearing (true) Bearing (mag) Surface Threshold Offset Overrun Length
06 148 ft / 45 m 7,466 ft / 2,276 m 44.78° 61.19° Asphalt 0 ft / 0 m 190 ft / 58 m
11 148 ft / 45 m 4,997 ft / 1,523 m 89.99° 106.40° Asphalt 0 ft / 0 m 0 ft / 0 m
24 148 ft / 45 m 7,466 ft / 2,276 m 224.78° 241.19° Asphalt 0 ft / 0 m 205 ft / 62 m
29 148 ft / 45 m 4,997 ft / 1,523 m 269.99° 286.40° Asphalt 0 ft / 0 m 0 ft / 0 m

Approach Navaids

Runway Type Ident Frequency Range Bearing (true) Bearing (mag) Slope Elevation
06 Localiser ITIM 109.30 MHz 18 nm / 33 km 44.78° 61.20° - 95 ft / 29 m (AMSL)
06 Glidescope ITIM 109.30 MHz 10 nm / 19 km 44.78° 61.20° 2.50° 95 ft / 29 m (AMSL)

Popular Alternatives